Time;durP1;ratioP1;P1;durP2;ratioP2;P2;SDS_P1;SDS_P2;PMS_P1;PMS_P2;Temp;Humidity;BMP_temperature;BMP_pressure;BME280_temperature;BME280_humidity;BME280_pressure;Samples;Min_cycle;Max_cycle;Signal;HPM_P1;HPM_P2
2022/11/14 00:00:39;;;;;;;22.87;17.97;;;4.90;99.90;;;;;;5056676;28;20463;-85
2022/11/14 00:03:07;;;;;;;20.83;17.40;;;4.90;99.90;;;;;;5056223;28;20480;-86
2022/11/14 00:05:39;;;;;;;25.73;17.10;;;4.90;99.90;;;;;;5052589;28;20451;-86
2022/11/14 00:08:06;;;;;;;20.03;17.90;;;4.90;99.90;;;;;;5052820;28;20475;-85
2022/11/14 00:10:33;;;;;;;20.27;18.10;;;4.90;99.90;;;;;;5053253;28;20457;-86
2022/11/14 00:13:00;;;;;;;23.00;20.43;;;4.80;99.90;;;;;;5056387;28;20464;-86
2022/11/14 00:15:27;;;;;;;26.73;20.47;;;4.90;99.90;;;;;;5072319;28;20504;-85
2022/11/14 00:17:53;;;;;;;24.53;19.53;;;4.80;99.90;;;;;;5055453;28;20933;-85
2022/11/14 00:20:20;;;;;;;30.30;20.40;;;4.80;99.90;;;;;;5054071;28;20444;-85
2022/11/14 00:22:48;;;;;;;25.50;19.50;;;4.70;99.90;;;;;;5052584;28;20492;-85
2022/11/14 00:25:15;;;;;;;26.87;20.93;;;4.70;99.90;;;;;;5053544;28;20814;-85
2022/11/14 00:27:42;;;;;;;26.93;21.40;;;4.70;99.90;;;;;;5067206;28;20441;-85
2022/11/14 00:30:09;;;;;;;29.43;22.03;;;4.70;99.90;;;;;;5073825;28;20437;-87
2022/11/14 00:32:36;;;;;;;27.53;22.27;;;4.70;99.90;;;;;;5071198;28;20476;-85
2022/11/14 00:35:02;;;;;;;24.60;21.50;;;4.70;99.90;;;;;;5065755;28;20481;-85
2022/11/14 00:37:29;;;;;;;26.97;20.40;;;4.70;99.90;;;;;;5056788;28;20552;-86
2022/11/14 00:39:57;;;;;;;25.80;21.03;;;4.70;99.90;;;;;;5062707;28;20479;-85
2022/11/14 00:42:24;;;;;;;26.23;20.60;;;4.60;99.90;;;;;;5068313;28;20540;-85
2022/11/14 00:44:51;;;;;;;24.63;20.57;;;4.60;99.90;;;;;;5072485;28;20468;-84
2022/11/14 00:47:18;;;;;;;25.33;20.90;;;4.60;99.90;;;;;;5058397;28;20448;-84
2022/11/14 00:49:44;;;;;;;26.80;22.23;;;4.50;99.90;;;;;;5057757;28;20463;-84
2022/11/14 00:52:11;;;;;;;22.63;19.50;;;4.50;99.90;;;;;;5056821;28;21008;-84
2022/11/14 00:54:38;;;;;;;29.50;22.43;;;4.50;99.90;;;;;;5056272;28;20483;-85
2022/11/14 00:57:06;;;;;;;27.63;21.60;;;4.50;99.90;;;;;;5056319;28;20449;-85
2022/11/14 00:59:33;;;;;;;25.63;19.47;;;4.50;99.90;;;;;;5065206;28;20444;-85
2022/11/14 01:02:00;;;;;;;24.73;22.10;;;4.50;99.90;;;;;;5075495;28;20446;-85
2022/11/14 01:04:27;;;;;;;25.27;21.17;;;4.50;99.90;;;;;;5077843;28;20463;-85
2022/11/14 01:06:53;;;;;;;28.40;23.07;;;4.50;99.90;;;;;;5070184;28;20457;-85
2022/11/14 01:09:20;;;;;;;28.10;20.93;;;4.40;99.90;;;;;;5064454;28;20857;-85
2022/11/14 01:11:47;;;;;;;26.10;21.50;;;4.40;99.90;;;;;;5055574;28;20473;-85
2022/11/14 01:14:15;;;;;;;24.93;21.13;;;4.40;99.90;;;;;;5054181;28;20445;-85
2022/11/14 01:16:42;;;;;;;27.17;21.97;;;4.40;99.90;;;;;;5055661;28;20487;-85
2022/11/14 01:19:08;;;;;;;29.20;22.53;;;4.40;99.90;;;;;;5065311;28;20449;-85
2022/11/14 01:21:36;;;;;;;30.93;22.90;;;4.40;99.90;;;;;;5067285;28;20544;-85
2022/11/14 01:24:03;;;;;;;25.40;22.63;;;4.40;99.90;;;;;;5055097;28;20481;-85
2022/11/14 01:26:30;;;;;;;25.90;21.97;;;4.40;99.90;;;;;;5058447;28;20440;-85
2022/11/14 01:28:57;;;;;;;25.93;20.77;;;4.30;99.90;;;;;;5068707;28;20516;-85
2022/11/14 01:31:25;;;;;;;24.80;20.50;;;4.30;99.90;;;;;;5063512;28;20441;-85
2022/11/14 01:33:54;;;;;;;23.87;21.27;;;4.30;99.90;;;;;;5061284;28;20467;-85
2022/11/14 01:36:21;;;;;;;27.93;20.47;;;4.20;99.90;;;;;;5077015;28;21020;-85
2022/11/14 01:38:52;;;;;;;24.10;20.90;;;4.20;99.90;;;;;;5070176;28;20433;-85
2022/11/14 01:41:19;;;;;;;27.10;21.73;;;4.20;99.90;;;;;;5068005;28;20964;-84
2022/11/14 01:43:46;;;;;;;26.20;21.87;;;4.20;99.90;;;;;;5056145;28;20475;-85
2022/11/14 01:46:16;;;;;;;31.33;23.23;;;4.10;99.90;;;;;;5063461;28;20429;-84
2022/11/14 01:48:47;;;;;;;26.70;22.07;;;4.10;99.90;;;;;;5079754;28;20453;-85
2022/11/14 01:51:23;;;;;;;28.70;22.13;;;4.10;99.90;;;;;;5061502;28;20470;-84
2022/11/14 01:53:53;;;;;;;29.33;22.00;;;4.20;99.90;;;;;;5057415;28;20469;-85
2022/11/14 01:56:25;;;;;;;25.27;19.40;;;4.10;99.90;;;;;;5058022;28;20480;-84
2022/11/14 01:58:56;;;;;;;26.60;19.20;;;4.00;99.90;;;;;;5054367;28;20440;-85
2022/11/14 02:01:24;;;;;;;28.67;21.43;;;4.00;99.90;;;;;;5055327;28;20457;-84
2022/11/14 02:03:55;;;;;;;24.30;18.60;;;4.00;99.90;;;;;;5054698;28;20480;-85
2022/11/14 02:06:25;;;;;;;23.60;20.00;;;4.00;99.90;;;;;;5055221;28;20451;-85
2022/11/14 02:08:53;;;;;;;24.90;20.73;;;4.00;99.90;;;;;;5075445;28;20435;-86
2022/11/14 02:11:20;;;;;;;26.20;19.10;;;3.90;99.90;;;;;;5078038;28;20452;-85
2022/11/14 02:13:47;;;;;;;21.57;18.10;;;3.90;99.90;;;;;;5061436;28;20467;-85
2022/11/14 02:16:14;;;;;;;20.20;16.47;;;3.90;99.90;;;;;;5061375;28;20477;-85
2022/11/14 02:18:41;;;;;;;29.15;18.70;;;3.90;99.90;;;;;;5060615;28;20429;-85
2022/11/14 02:21:09;;;;;;;25.73;17.33;;;3.80;99.90;;;;;;5077184;28;20203;-86
2022/11/14 02:23:36;;;;;;;24.83;18.27;;;3.80;99.90;;;;;;5074178;28;20533;-86
2022/11/14 02:26:03;;;;;;;20.13;16.57;;;3.80;99.90;;;;;;5057202;28;20440;-84
2022/11/14 02:28:29;;;;;;;24.47;17.30;;;3.80;99.90;;;;;;5055034;28;20445;-85
2022/11/14 02:30:56;;;;;;;25.67;19.20;;;3.80;99.90;;;;;;5055029;28;20448;-85
2022/11/14 02:33:25;;;;;;;24.73;18.63;;;3.80;99.90;;;;;;5055089;28;20480;-90
2022/11/14 02:35:52;;;;;;;23.13;19.23;;;3.80;99.90;;;;;;5054848;28;20866;-85
2022/11/14 02:38:20;;;;;;;25.13;18.00;;;3.80;99.90;;;;;;5063783;28;20429;-85
2022/11/14 02:40:46;;;;;;;33.00;19.43;;;3.70;99.90;;;;;;5072623;28;20535;-86
2022/11/14 02:43:13;;;;;;;27.00;20.07;;;3.70;99.90;;;;;;5066276;28;20469;-86
2022/11/14 02:45:40;;;;;;;22.07;18.10;;;3.70;99.90;;;;;;5075126;28;20445;-85
2022/11/14 02:48:07;;;;;;;24.60;19.30;;;3.70;99.90;;;;;;5075803;28;20445;-86
2022/11/14 02:50:34;;;;;;;25.27;19.67;;;3.60;99.90;;;;;;5067961;28;20448;-85
2022/11/14 02:53:01;;;;;;;26.43;20.40;;;3.70;99.90;;;;;;5069979;28;20526;-86
2022/11/14 02:55:29;;;;;;;27.30;20.30;;;3.70;99.90;;;;;;5075385;28;20479;-86
2022/11/14 02:57:56;;;;;;;23.47;19.10;;;3.70;99.90;;;;;;5074005;28;20448;-85
2022/11/14 03:00:22;;;;;;;26.80;19.67;;;3.60;99.90;;;;;;5082144;28;20495;-85
2022/11/14 03:02:49;;;;;;;25.07;20.53;;;3.60;99.90;;;;;;5079385;28;20523;-85
2022/11/14 03:05:16;;;;;;;22.83;18.70;;;3.70;99.90;;;;;;5068889;28;20938;-85
2022/11/14 03:07:43;;;;;;;21.10;17.60;;;3.70;99.90;;;;;;5064671;28;20441;-85
2022/11/14 03:10:10;;;;;;;28.60;21.53;;;3.70;99.90;;;;;;5065022;28;20447;-85
2022/11/14 03:12:39;;;;;;;27.43;20.73;;;3.70;99.90;;;;;;5067506;28;20465;-85
2022/11/14 03:15:07;;;;;;;29.33;23.13;;;3.70;99.90;;;;;;5075449;28;20444;-86
2022/11/14 03:17:34;;;;;;;26.27;22.37;;;3.80;99.90;;;;;;5074291;28;20443;-85
2022/11/14 03:20:01;;;;;;;27.20;23.60;;;3.70;99.90;;;;;;5066827;28;20441;-85
2022/11/14 03:22:28;;;;;;;27.87;20.87;;;3.70;99.90;;;;;;5064073;28;20460;-85
2022/11/14 03:24:55;;;;;;;28.23;21.23;;;3.70;99.90;;;;;;5067601;28;20455;-85
2022/11/14 03:27:22;;;;;;;27.60;23.07;;;3.70;99.90;;;;;;5082612;28;20437;-85
2022/11/14 03:29:50;;;;;;;28.50;20.30;;;3.60;99.90;;;;;;5067850;28;20470;-85
2022/11/14 03:32:17;;;;;;;27.23;23.00;;;3.60;99.90;;;;;;5063584;28;20470;-85
2022/11/14 03:34:43;;;;;;;29.23;21.87;;;3.70;99.90;;;;;;5071154;28;20440;-86
2022/11/14 03:37:10;;;;;;;23.40;19.20;;;3.60;99.90;;;;;;5082916;28;21125;-85
2022/11/14 03:39:37;;;;;;;25.40;21.40;;;3.60;99.90;;;;;;5073878;28;20446;-85
2022/11/14 03:42:05;;;;;;;26.33;21.67;;;3.60;99.90;;;;;;5074931;28;20597;-85
2022/11/14 03:44:32;;;;;;;28.73;23.60;;;3.50;99.90;;;;;;5061579;28;20444;-85
2022/11/14 03:47:01;;;;;;;27.13;20.57;;;3.50;99.90;;;;;;5063322;28;20447;-85
2022/11/14 03:49:28;;;;;;;28.73;22.77;;;3.40;99.90;;;;;;5059808;28;20451;-85
2022/11/14 03:51:55;;;;;;;28.87;23.60;;;3.50;99.90;;;;;;5062815;28;20932;-85
2022/11/14 03:54:22;;;;;;;25.93;21.40;;;3.40;99.90;;;;;;5063876;28;20444;-85
2022/11/14 03:56:48;;;;;;;25.93;22.33;;;3.40;99.90;;;;;;5060923;28;20959;-85
2022/11/14 03:59:15;;;;;;;30.80;23.73;;;3.40;99.90;;;;;;5064531;28;20482;-86
2022/11/14 04:01:42;;;;;;;32.20;23.40;;;3.40;99.90;;;;;;5064041;28;20448;-86
2022/11/14 04:04:11;;;;;;;32.00;23.00;;;3.40;99.90;;;;;;5061192;28;20483;-85
2022/11/14 04:06:38;;;;;;;34.83;24.90;;;3.40;99.90;;;;;;5076298;28;20448;-85
2022/11/14 04:09:06;;;;;;;36.50;24.70;;;3.50;99.90;;;;;;5062812;28;20436;-85
2022/11/14 04:11:33;;;;;;;31.92;25.15;;;3.40;99.90;;;;;;5071911;28;20441;-86
2022/11/14 04:13:59;;;;;;;35.10;24.00;;;3.40;99.90;;;;;;5062470;28;20277;-85
2022/11/14 04:16:26;;;;;;;34.17;26.00;;;3.30;99.90;;;;;;5068496;28;20479;-85
2022/11/14 04:18:53;;;;;;;30.90;24.10;;;3.30;99.90;;;;;;5076493;28;20430;-86
2022/11/14 04:21:21;;;;;;;26.30;22.77;;;3.30;99.90;;;;;;5096940;28;20502;-84
2022/11/14 04:23:48;;;;;;;28.83;22.77;;;3.40;99.90;;;;;;5090025;28;20452;-84
2022/11/14 04:26:14;;;;;;;32.80;22.27;;;3.40;99.90;;;;;;5072254;28;20447;-84
2022/11/14 04:28:41;;;;;;;30.90;21.27;;;3.50;99.90;;;;;;5073522;28;20456;-85
2022/11/14 04:31:08;;;;;;;25.13;19.43;;;3.40;99.90;;;;;;5072620;28;20446;-85
2022/11/14 04:33:35;;;;;;;21.65;17.83;;;3.40;99.90;;;;;;5069199;28;20484;-85
2022/11/14 04:36:02;;;;;;;21.70;18.57;;;3.40;99.90;;;;;;5068033;28;20225;-85
2022/11/14 04:38:30;;;;;;;26.23;19.57;;;3.40;99.90;;;;;;5065453;28;20937;-84
2022/11/14 04:40:57;;;;;;;21.73;18.50;;;3.40;99.90;;;;;;5067085;28;20440;-85
2022/11/14 04:43:23;;;;;;;25.23;18.90;;;3.30;99.90;;;;;;5067400;28;20474;-86
2022/11/14 04:45:50;;;;;;;20.03;16.97;;;3.40;99.90;;;;;;5067410;28;20432;-85
2022/11/14 04:48:17;;;;;;;18.70;16.70;;;3.40;99.90;;;;;;5076604;28;20445;-86
2022/11/14 04:50:45;;;;;;;18.60;16.47;;;3.40;99.90;;;;;;5092879;28;20422;-84
2022/11/14 04:53:12;;;;;;;18.43;16.53;;;3.40;99.90;;;;;;5101733;28;20499;-85
2022/11/14 04:55:40;;;;;;;20.60;16.07;;;3.30;99.90;;;;;;5078234;28;20598;-84
2022/11/14 04:58:07;;;;;;;18.03;15.70;;;3.30;99.90;;;;;;5062757;28;20444;-84
2022/11/14 05:00:33;;;;;;;18.73;16.70;;;3.40;99.90;;;;;;5067644;28;20440;-85
2022/11/14 05:03:00;;;;;;;19.20;16.50;;;3.40;99.90;;;;;;5066171;28;20567;-85
2022/11/14 05:08:03;;;;;;;18.73;16.20;;;3.30;99.90;;;;;;5051726;28;21027;-84
2022/11/14 05:10:30;;;;;;;19.53;16.03;;;3.30;99.90;;;;;;5053512;28;20433;-84
2022/11/14 05:12:58;;;;;;;18.47;15.07;;;3.30;99.90;;;;;;5054139;28;20929;-84
2022/11/14 05:15:24;;;;;;;17.50;15.60;;;3.30;99.90;;;;;;5060495;28;20440;-84
2022/11/14 05:17:51;;;;;;;20.07;17.60;;;3.30;99.90;;;;;;5062006;28;20487;-84
2022/11/14 05:20:18;;;;;;;19.60;16.10;;;3.30;99.90;;;;;;5056743;28;20444;-84
2022/11/14 05:22:45;;;;;;;21.97;16.70;;;3.20;99.90;;;;;;5072429;28;20456;-83
2022/11/14 05:25:11;;;;;;;21.90;15.67;;;3.30;99.90;;;;;;5073482;28;20433;-84
2022/11/14 05:27:38;;;;;;;17.77;14.53;;;3.40;99.90;;;;;;5053128;28;20464;-83
2022/11/14 05:30:07;;;;;;;21.13;16.20;;;3.40;99.90;;;;;;5055867;28;20448;-84
2022/11/14 05:32:34;;;;;;;19.07;14.77;;;3.40;99.90;;;;;;5054174;28;20806;-84
2022/11/14 05:35:01;;;;;;;17.70;15.90;;;3.40;99.90;;;;;;5055155;28;20448;-84
2022/11/14 05:37:27;;;;;;;18.90;16.20;;;3.40;99.90;;;;;;5060292;28;20491;-84
2022/11/14 05:39:54;;;;;;;20.90;16.63;;;3.40;99.90;;;;;;5059457;28;20570;-84
2022/11/14 05:42:21;;;;;;;21.60;17.57;;;3.30;99.90;;;;;;5059937;28;20816;-84
2022/11/14 05:44:48;;;;;;;23.30;16.73;;;3.40;99.90;;;;;;5061560;28;20437;-86
2022/11/14 05:47:16;;;;;;;21.63;16.77;;;3.40;99.90;;;;;;5055213;28;20634;-84
2022/11/14 05:49:43;;;;;;;20.97;16.87;;;3.40;99.90;;;;;;5053483;28;20441;-84
2022/11/14 05:52:09;;;;;;;22.13;16.23;;;3.40;99.90;;;;;;5053343;28;20463;-84
2022/11/14 05:54:36;;;;;;;21.77;16.50;;;3.40;99.90;;;;;;5052503;28;20507;-85
2022/11/14 05:57:04;;;;;;;18.27;15.37;;;3.40;99.90;;;;;;5052447;28;20477;-85
2022/11/14 05:59:31;;;;;;;23.73;16.00;;;3.50;99.90;;;;;;5053267;28;20441;-84
2022/11/14 06:01:58;;;;;;;22.03;16.70;;;3.50;99.90;;;;;;5053806;28;20448;-85
2022/11/14 06:04:26;;;;;;;23.57;17.93;;;3.50;99.90;;;;;;5053484;28;20449;-85
2022/11/14 06:06:53;;;;;;;18.93;16.00;;;3.50;99.90;;;;;;5052565;28;20464;-86
2022/11/14 06:09:19;;;;;;;17.30;14.87;;;3.60;99.90;;;;;;5052822;28;20441;-85
2022/11/14 06:11:46;;;;;;;18.17;15.27;;;3.60;99.90;;;;;;5053491;28;20444;-85
2022/11/14 06:14:13;;;;;;;17.40;15.10;;;3.70;99.90;;;;;;5052805;28;20441;-84
2022/11/14 06:16:40;;;;;;;17.90;15.23;;;3.80;99.90;;;;;;5053143;28;20481;-84
2022/11/14 06:19:06;;;;;;;20.10;14.77;;;3.90;99.90;;;;;;5053149;28;20536;-85
2022/11/14 06:21:34;;;;;;;19.53;16.33;;;4.00;99.90;;;;;;5053365;28;20883;-85
2022/11/14 06:24:01;;;;;;;21.43;17.13;;;4.00;99.90;;;;;;5053563;28;20440;-85
2022/11/14 06:26:30;;;;;;;18.77;15.63;;;4.10;99.90;;;;;;5066319;28;20467;-84
2022/11/14 06:28:58;;;;;;;21.80;17.00;;;4.20;99.90;;;;;;5078541;28;20425;-84
2022/11/14 06:31:25;;;;;;;23.13;17.37;;;4.30;99.90;;;;;;5058210;28;20437;-84
2022/11/14 06:33:52;;;;;;;22.27;17.93;;;4.30;99.90;;;;;;5054127;28;20433;-84
2022/11/14 06:36:19;;;;;;;23.27;18.00;;;4.40;99.90;;;;;;5054258;28;20488;-85
2022/11/14 06:38:47;;;;;;;22.67;16.13;;;4.40;99.90;;;;;;5063218;28;20448;-86
2022/11/14 06:41:16;;;;;;;22.00;17.40;;;4.50;99.90;;;;;;5076448;28;20452;-85
2022/11/14 06:43:44;;;;;;;19.03;14.60;;;4.60;99.90;;;;;;5076066;28;20437;-85
2022/11/14 06:46:14;;;;;;;20.90;16.60;;;4.60;99.90;;;;;;5076836;28;20488;-85
2022/11/14 06:48:42;;;;;;;20.87;16.53;;;4.70;99.90;;;;;;5077247;28;20433;-86
2022/11/14 06:51:10;;;;;;;18.87;16.37;;;4.80;99.90;;;;;;5076923;28;20437;-85
2022/11/14 06:53:37;;;;;;;29.37;15.90;;;4.80;99.90;;;;;;5076038;28;20492;-85
2022/11/14 06:56:07;;;;;;;22.37;15.77;;;4.80;99.90;;;;;;5073470;28;20445;-86
2022/11/14 06:58:37;;;;;;;18.03;15.60;;;4.80;99.90;;;;;;5075537;28;20437;-85
2022/11/14 07:01:05;;;;;;;26.63;16.40;;;4.80;99.90;;;;;;5072667;28;20437;-86
2022/11/14 07:03:32;;;;;;;21.07;15.80;;;4.90;99.90;;;;;;5074852;28;20435;-86
2022/11/14 07:05:59;;;;;;;21.63;16.23;;;4.90;99.90;;;;;;5074806;28;20487;-86
2022/11/14 07:08:26;;;;;;;24.50;18.50;;;4.90;99.90;;;;;;5074941;28;20464;-86
2022/11/14 07:10:53;;;;;;;24.27;17.47;;;5.00;99.90;;;;;;5074230;28;20436;-86
2022/11/14 07:13:21;;;;;;;25.77;18.70;;;5.00;99.90;;;;;;5060887;28;20449;-85
2022/11/14 07:15:51;;;;;;;19.87;15.90;;;5.00;99.90;;;;;;5054167;28;20469;-86
2022/11/14 07:18:18;;;;;;;26.00;18.57;;;5.10;99.90;;;;;;5058045;28;20503;-86
2022/11/14 07:20:45;;;;;;;23.63;18.47;;;5.20;99.90;;;;;;5071597;28;20453;-86
2022/11/14 07:23:12;;;;;;;24.17;19.43;;;5.20;99.90;;;;;;5062194;28;20455;-86
2022/11/14 07:25:38;;;;;;;23.03;19.13;;;5.20;99.90;;;;;;5053277;28;20460;-86
2022/11/14 07:28:06;;;;;;;28.20;17.60;;;5.30;99.90;;;;;;5054029;28;20462;-86
2022/11/14 07:30:34;;;;;;;18.87;15.40;;;5.30;99.90;;;;;;5053980;28;20444;-86
2022/11/14 07:33:01;;;;;;;22.67;18.27;;;5.40;99.90;;;;;;5065447;28;20474;-85
2022/11/14 07:35:28;;;;;;;20.73;17.57;;;5.40;99.90;;;;;;5059645;28;20448;-87
2022/11/14 07:38:01;;;;;;;23.63;17.27;;;5.40;99.90;;;;;;5053786;28;20483;-85
2022/11/14 07:40:28;;;;;;;25.33;16.20;;;5.30;99.90;;;;;;5061921;28;20447;-86
2022/11/14 07:42:57;;;;;;;21.87;16.80;;;5.30;99.90;;;;;;5051900;28;20441;-86
2022/11/14 07:45:24;;;;;;;28.43;18.13;;;5.40;99.90;;;;;;5046134;28;20446;-84
2022/11/14 07:47:55;;;;;;;22.83;17.97;;;5.40;99.90;;;;;;5067736;28;20433;-85
2022/11/14 07:50:22;;;;;;;24.43;19.00;;;5.50;99.90;;;;;;5063846;28;20445;-85
2022/11/14 07:52:51;;;;;;;19.17;16.17;;;5.60;99.90;;;;;;5050122;28;20448;-85
2022/11/14 07:55:17;;;;;;;18.80;16.00;;;5.60;99.90;;;;;;5048319;28;20448;-85
2022/11/14 07:57:44;;;;;;;23.37;18.53;;;5.70;99.90;;;;;;5049629;28;20471;-85
2022/11/14 08:00:12;;;;;;;25.17;18.10;;;5.70;99.90;;;;;;5062598;28;20431;-85
2022/11/14 08:02:39;;;;;;;24.80;18.93;;;5.80;99.90;;;;;;5068842;28;20441;-84
2022/11/14 08:05:08;;;;;;;23.50;16.87;;;5.90;99.90;;;;;;5057834;28;20451;-85
2022/11/14 08:07:35;;;;;;;23.40;15.87;;;5.90;99.90;;;;;;5051248;28;20476;-85
2022/11/14 08:10:01;;;;;;;20.47;15.00;;;5.90;99.90;;;;;;5051016;28;20448;-85
2022/11/14 08:12:28;;;;;;;16.47;14.77;;;5.90;99.90;;;;;;5051688;28;20443;-85
2022/11/14 08:14:55;;;;;;;17.70;15.40;;;5.90;99.90;;;;;;5051225;28;20578;-85
2022/11/14 08:17:22;;;;;;;21.33;14.70;;;5.90;99.90;;;;;;5051228;28;20484;-86
2022/11/14 08:19:49;;;;;;;20.70;16.00;;;5.90;99.90;;;;;;5038155;28;20965;-85
2022/11/14 08:22:17;;;;;;;18.70;16.00;;;5.90;99.90;;;;;;5054446;28;20430;-85
2022/11/14 08:24:43;;;;;;;25.80;15.80;;;5.90;99.90;;;;;;5045759;28;20448;-85
2022/11/14 08:27:10;;;;;;;21.07;14.70;;;5.90;99.90;;;;;;5032530;28;21184;-85
2022/11/14 08:29:37;;;;;;;21.33;15.50;;;5.90;99.90;;;;;;5033844;28;20449;-86
2022/11/14 08:32:03;;;;;;;18.50;15.90;;;5.80;99.90;;;;;;5032914;28;20470;-86
2022/11/14 08:34:30;;;;;;;20.67;16.60;;;5.70;99.90;;;;;;5032543;28;20939;-86
2022/11/14 08:36:57;;;;;;;25.90;16.63;;;5.70;99.90;;;;;;5051202;28;20480;-86
2022/11/14 08:39:25;;;;;;;20.70;17.00;;;5.60;99.90;;;;;;5052146;28;20457;-86
2022/11/14 08:41:52;;;;;;;19.70;15.50;;;5.60;99.90;;;;;;5051894;28;20818;-86
2022/11/14 08:44:18;;;;;;;19.07;15.97;;;5.60;99.90;;;;;;5052107;28;20531;-86
2022/11/14 08:46:45;;;;;;;21.67;17.13;;;5.60;99.90;;;;;;5053030;28;20476;-86
2022/11/14 08:49:12;;;;;;;24.10;17.90;;;5.60;99.90;;;;;;5052194;28;20448;-86
2022/11/14 08:51:39;;;;;;;18.63;16.73;;;5.70;99.90;;;;;;5052088;28;20449;-86
2022/11/14 08:54:06;;;;;;;22.77;17.60;;;5.70;99.90;;;;;;5052201;28;20445;-87
2022/11/14 08:56:34;;;;;;;20.17;17.37;;;5.70;99.90;;;;;;5052045;28;20514;-86
2022/11/14 08:59:03;;;;;;;24.30;18.63;;;5.70;99.90;;;;;;5051781;28;20481;-87
2022/11/14 09:01:31;;;;;;;21.60;17.07;;;5.80;99.90;;;;;;5052244;28;20445;-87
2022/11/14 09:03:59;;;;;;;23.63;18.30;;;5.90;99.90;;;;;;5051871;28;20453;-87
2022/11/14 09:06:26;;;;;;;26.93;18.67;;;6.00;99.90;;;;;;5052160;28;20479;-87
2022/11/14 09:08:52;;;;;;;20.70;16.87;;;6.10;99.90;;;;;;5054793;28;20440;-87
2022/11/14 09:11:19;;;;;;;21.00;15.13;;;6.20;99.90;;;;;;5055982;28;20475;-87
2022/11/14 09:13:47;;;;;;;20.90;15.57;;;6.20;99.90;;;;;;5055882;28;20948;-88
2022/11/14 09:16:14;;;;;;;16.03;13.50;;;6.30;99.90;;;;;;5057208;28;20464;-87
2022/11/14 09:18:41;;;;;;;19.97;14.03;;;6.50;99.90;;;;;;5055166;28;20602;-87
2022/11/14 09:21:08;;;;;;;20.17;14.80;;;6.50;99.90;;;;;;5055989;28;20455;-87
2022/11/14 09:23:36;;;;;;;14.87;13.30;;;6.70;99.90;;;;;;5056259;28;20455;-87
2022/11/14 09:26:04;;;;;;;15.60;13.33;;;6.70;99.90;;;;;;5072483;28;20543;-87
2022/11/14 09:28:30;;;;;;;16.37;13.27;;;6.80;99.90;;;;;;5073911;28;20444;-87
2022/11/14 09:31:01;;;;;;;17.83;14.07;;;6.90;99.90;;;;;;5056048;28;20793;-87
2022/11/14 09:33:28;;;;;;;18.40;15.27;;;6.90;99.90;;;;;;5055220;28;20502;-87
2022/11/14 09:35:57;;;;;;;19.77;15.23;;;7.00;99.90;;;;;;5056469;28;20471;-87
2022/11/14 09:38:23;;;;;;;16.20;14.10;;;7.00;99.90;;;;;;5054319;28;20485;-87
2022/11/14 09:41:01;;;;;;;16.70;14.07;;;7.10;99.90;;;;;;5055359;28;20445;-87
2022/11/14 09:43:43;;;;;;;18.13;14.83;;;7.20;99.90;;;;;;5058169;28;20857;-87
2022/11/14 09:46:20;;;;;;;16.90;15.17;;;7.30;99.90;;;;;;5056149;28;20483;-87
2022/11/14 09:48:47;;;;;;;23.63;16.30;;;7.40;99.90;;;;;;5053453;28;20797;-87
2022/11/14 09:51:17;;;;;;;21.60;17.47;;;7.50;99.90;;;;;;5054724;28;20455;-87
2022/11/14 09:53:50;;;;;;;19.47;16.57;;;7.50;99.90;;;;;;5054120;28;20444;-87
2022/11/14 09:56:22;;;;;;;21.70;16.83;;;7.40;99.90;;;;;;5054406;28;20465;-87
2022/11/14 09:58:49;;;;;;;20.87;17.07;;;7.40;99.90;;;;;;5055497;28;20828;-87
2022/11/14 10:01:27;;;;;;;21.30;17.57;;;7.30;99.90;;;;;;5056029;28;20451;-87
2022/11/14 10:04:03;;;;;;;21.60;14.80;;;7.40;99.90;;;;;;5053852;28;20967;-87
2022/11/14 10:06:33;;;;;;;22.60;16.47;;;7.50;99.90;;;;;;5058100;28;20472;-87
2022/11/14 10:09:29;;;;;;;19.97;15.80;;;7.60;99.90;;;;;;5077237;28;20527;-87
2022/11/14 10:12:04;;;;;;;21.47;14.97;;;7.80;99.90;;;;;;5040245;28;20450;-87
2022/11/14 10:14:46;;;;;;;22.30;15.70;;;7.90;99.90;;;;;;5056345;28;20430;-88
2022/11/14 10:17:39;;;;;;;17.53;15.60;;;8.00;99.90;;;;;;5064904;28;20476;-88
2022/11/14 10:20:16;;;;;;;17.90;13.57;;;8.10;99.90;;;;;;5055545;28;20476;-88
2022/11/14 10:22:57;;;;;;;19.53;14.63;;;8.20;99.90;;;;;;5054093;28;20456;-87
2022/11/14 10:25:26;;;;;;;15.73;12.30;;;8.60;99.90;;;;;;5054481;28;20449;-87
2022/11/14 10:28:08;;;;;;;19.10;12.60;;;9.30;99.90;;;;;;5054088;28;20457;-88
2022/11/14 10:30:40;;;;;;;13.90;11.97;;;10.00;99.90;;;;;;5053676;28;20451;-87
2022/11/14 10:33:23;;;;;;;16.40;11.53;;;10.50;99.90;;;;;;5053786;28;21000;-87
2022/11/14 10:35:57;;;;;;;12.73;11.10;;;10.30;99.90;;;;;;5053186;28;20464;-88
2022/11/14 10:38:29;;;;;;;11.87;9.77;;;10.30;99.90;;;;;;5053629;28;20491;-87
2022/11/14 10:41:00;;;;;;;10.73;9.63;;;10.00;99.90;;;;;;5072116;28;20425;-88
2022/11/14 10:43:32;;;;;;;10.93;9.60;;;9.90;99.90;;;;;;5069626;28;20475;-87
2022/11/14 10:46:04;;;;;;;12.20;10.20;;;9.80;99.90;;;;;;5055385;28;20464;-87
2022/11/14 10:48:35;;;;;;;15.00;11.60;;;9.80;99.90;;;;;;5054742;28;20452;-87
2022/11/14 10:51:06;;;;;;;11.37;9.30;;;9.90;99.90;;;;;;5054598;28;20441;-87
2022/11/14 10:53:43;;;;;;;10.17;9.17;;;9.80;99.90;;;;;;5056040;28;20798;-88
2022/11/14 10:56:13;;;;;;;11.20;8.60;;;9.90;99.90;;;;;;5053279;28;20473;-87
2022/11/14 10:58:40;;;;;;;9.33;8.37;;;10.10;99.90;;;;;;5052946;28;20491;-87
2022/11/14 11:01:32;;;;;;;12.30;7.70;;;10.20;99.90;;;;;;5053669;28;20818;-88
2022/11/14 11:04:21;;;;;;;15.63;9.07;;;10.20;99.90;;;;;;5053565;28;20440;-87
2022/11/14 11:06:49;;;;;;;14.13;9.10;;;10.20;99.90;;;;;;5050253;28;21001;-87
2022/11/14 11:11:53;;;;;;;8.30;7.50;;;10.20;99.90;;;;;;5056452;28;20457;-85
2022/11/14 11:14:21;;;;;;;8.87;7.97;;;10.40;99.90;;;;;;5074456;28;20480;-84
2022/11/14 11:16:48;;;;;;;9.20;6.77;;;11.60;99.90;;;;;;5073991;28;20512;-84
2022/11/14 11:19:23;;;;;;;10.03;7.10;;;12.50;99.90;;;;;;5065863;28;20484;-85
2022/11/14 11:21:52;;;;;;;7.10;5.10;;;14.30;99.90;;;;;;5064346;28;20448;-83
2022/11/14 11:24:32;;;;;;;5.87;4.83;;;15.20;99.90;;;;;;5076702;28;20502;-83
2022/11/14 11:27:22;;;;;;;5.60;4.93;;;14.80;99.90;;;;;;5077125;28;20540;-84
2022/11/14 11:30:02;;;;;;;5.40;4.73;;;16.00;99.90;;;;;;5060988;28;20986;-84
2022/11/14 11:32:29;;;;;;;5.80;5.20;;;17.50;99.90;;;;;;5058059;28;20470;-83
2022/11/14 11:34:59;;;;;;;5.63;4.67;;;18.40;99.90;;;;;;5058109;28;20472;-88
2022/11/14 11:37:28;;;;;;;5.70;4.40;;;18.20;99.90;;;;;;5056042;28;20453;-83
2022/11/14 11:39:57;;;;;;;12.50;6.43;;;17.30;99.90;;;;;;5068482;28;20469;-83
2022/11/14 11:42:28;;;;;;;5.63;4.50;;;15.70;99.90;;;;;;5066804;28;20453;-83
2022/11/14 11:44:59;;;;;;;6.10;5.13;;;14.60;99.90;;;;;;5069583;28;20451;-82
2022/11/14 11:47:29;;;;;;;6.80;4.17;;;13.90;99.90;;;;;;5060944;28;20448;-85
2022/11/14 11:49:58;;;;;;;4.50;4.10;;;13.40;99.90;;;;;;5057517;28;20487;-82
2022/11/14 11:52:32;;;;;;;5.83;3.97;;;13.10;99.90;;;;;;5055885;28;20448;-85
2022/11/14 11:55:03;;;;;;;5.50;4.90;;;12.80;99.90;;;;;;5056641;28;20451;-84
2022/11/14 11:57:36;;;;;;;4.17;3.63;;;12.70;99.90;;;;;;5057715;28;20452;-85
2022/11/14 12:00:14;;;;;;;6.13;5.53;;;12.60;99.90;;;;;;5062166;28;20479;-83
2022/11/14 12:02:45;;;;;;;6.53;4.20;;;12.50;99.90;;;;;;5059069;28;20449;-84
2022/11/14 12:05:16;;;;;;;5.27;4.37;;;12.50;99.90;;;;;;5058893;28;20460;-84
2022/11/14 12:07:51;;;;;;;4.53;3.27;;;12.40;99.90;;;;;;5062160;28;20461;-84
2022/11/14 12:10:23;;;;;;;4.77;2.83;;;12.30;99.90;;;;;;5058752;28;20494;-84
2022/11/14 12:13:14;;;;;;;6.07;4.20;;;12.30;99.90;;;;;;5059401;28;20447;-84
2022/11/14 12:15:50;;;;;;;4.57;3.20;;;12.20;99.90;;;;;;5057741;28;20448;-85
2022/11/14 12:18:56;;;;;;;3.40;2.50;;;12.30;99.90;;;;;;5057333;28;20832;-84
2022/11/14 12:21:44;;;;;;;3.60;2.70;;;12.30;99.90;;;;;;5031171;28;20475;-84
2022/11/14 12:24:42;;;;;;;7.13;4.30;;;12.40;99.90;;;;;;5059335;28;20459;-83
2022/11/14 12:27:23;;;;;;;7.83;3.83;;;12.50;99.90;;;;;;5074336;28;20436;-84
2022/11/14 12:30:08;;;;;;;5.23;3.97;;;12.70;99.90;;;;;;5075129;28;21019;-83
2022/11/14 12:32:42;;;;;;;4.70;3.30;;;12.80;99.90;;;;;;5069499;28;20445;-84
2022/11/14 12:35:17;;;;;;;3.90;3.17;;;12.90;99.90;;;;;;5068139;28;20448;-84
2022/11/14 12:37:46;;;;;;;2.97;2.47;;;13.10;99.90;;;;;;5064374;28;20523;-85
2022/11/14 12:40:24;;;;;;;2.90;2.60;;;13.60;99.90;;;;;;5067976;28;20447;-85
2022/11/14 12:42:51;;;;;;;4.23;2.47;;;14.10;99.90;;;;;;5060364;28;20551;-87
2022/11/14 12:45:55;;;;;;;5.60;2.50;;;14.20;99.90;;;;;;5061962;28;20540;-84
2022/11/14 12:48:28;;;;;;;3.67;2.63;;;14.00;99.90;;;;;;5063943;28;20440;-85
2022/11/14 12:50:57;;;;;;;3.43;2.57;;;13.80;99.90;;;;;;5062683;28;20468;-84
2022/11/14 12:53:46;;;;;;;5.47;2.70;;;13.70;99.90;;;;;;5061769;28;20450;-86